DRI Airport (Beauregard Rgnl) Information

FAA: DRI - ICAO: KDRI

DRI Airport Location

State Louisiana
County Beauregard
City De Ridder
DRI Airport is 3 miles southwest of De Ridder, LA.
Latitude 30-49-54.2000N
Longitude 093-20-23.7000W
Elevation 201ft

KDRI Airport METARs

METAR KDRI 251555Z AUTO 31004KT 10SM OVC014 25/23 A3001 RMK AO2 T02470225
Altimeter 30.01"
Temperature 24.7°C (76.5°F)
Wind 310° at 4KT
Clouds overcast at 1,400ft
Visibility 10.0mi
Time observed: 2021-10-25T15:55:00Z

DRI Airport Details

Status Operational
Activation April 1940
Ownership Public
Usage Public
Chart HOUSTON
ATC on-site No
Beacon schedule sunset-sunrise
Beacon color clear green

DRI Airport Contacts

Owner BEAUREGARD PARISH
Owner address 1220 1ST AVE, DERIDDER, LA 70634
Owner phone 337-463-8250
Manager ROXY RUBIN
Manager address PO BOX A, CROWLEY, LA 70527-6001
Manager phone 318-788-8800

DRI Airport (Beauregard Rgnl) Radio Frequencies

DRI (Airport) Radio Frequencies

UNICOM 122.8
Common traffic advisory frequency (CTAF) 122.8